createdAt,value
2022-12-09T00:00:52.144Z,38.80
2022-12-09T00:03:23.677Z,37.77
2022-12-09T00:05:51.286Z,37.37
2022-12-09T00:08:18.355Z,38.70
2022-12-09T00:10:46.034Z,38.53
2022-12-09T00:13:15.327Z,37.10
2022-12-09T00:15:43.185Z,38.40
2022-12-09T00:18:10.625Z,36.40
2022-12-09T00:20:37.671Z,37.70
2022-12-09T00:23:04.726Z,42.17
2022-12-09T00:25:32.948Z,42.37
2022-12-09T00:28:00.150Z,40.23
2022-12-09T00:30:28.164Z,40.97
2022-12-09T00:32:55.760Z,39.83
2022-12-09T00:35:26.686Z,40.60
2022-12-09T00:37:53.643Z,41.30
2022-12-09T00:40:21.907Z,42.17
2022-12-09T00:42:50.504Z,41.70
2022-12-09T00:45:17.601Z,41.27
2022-12-09T00:47:44.695Z,40.27
2022-12-09T00:50:11.994Z,40.20
2022-12-09T00:52:39.357Z,40.30
2022-12-09T00:55:07.256Z,41.77
2022-12-09T00:57:34.277Z,41.87
2022-12-09T01:00:01.396Z,42.90
2022-12-09T01:02:28.540Z,44.27
2022-12-09T01:04:55.798Z,42.70
2022-12-09T01:07:24.441Z,46.20
2022-12-09T01:09:51.454Z,44.00
2022-12-09T01:12:18.458Z,48.93
2022-12-09T01:14:45.546Z,46.87
2022-12-09T01:17:12.895Z,48.17
2022-12-09T01:19:40.888Z,48.87
2022-12-09T01:22:07.938Z,47.30
2022-12-09T01:24:34.980Z,50.20
2022-12-09T01:27:02.417Z,48.70
2022-12-09T01:29:29.539Z,48.37
2022-12-09T01:31:56.836Z,49.10
2022-12-09T01:34:24.000Z,46.70
2022-12-09T01:36:51.296Z,45.40
2022-12-09T01:39:18.605Z,48.80
2022-12-09T01:41:46.012Z,48.40
2022-12-09T01:44:17.099Z,48.53
2022-12-09T01:46:45.609Z,49.60
2022-12-09T01:49:17.227Z,50.80
2022-12-09T01:51:48.058Z,47.23
2022-12-09T01:54:16.141Z,46.53
2022-12-09T01:56:43.129Z,46.00
2022-12-09T01:59:14.571Z,44.73
2022-12-09T02:01:44.532Z,47.53
2022-12-09T02:04:11.843Z,47.30
2022-12-09T02:06:39.794Z,45.93
2022-12-09T02:09:07.376Z,46.93
2022-12-09T02:12:10.604Z,50.87
2022-12-09T02:15:01.487Z,47.20
2022-12-09T02:17:46.568Z,51.40
2022-12-09T02:20:57.237Z,51.10
2022-12-09T02:23:43.086Z,47.73
2022-12-09T02:26:51.873Z,48.10
2022-12-09T02:29:51.732Z,46.43
2022-12-09T02:33:11.975Z,48.70
2022-12-09T02:35:49.235Z,46.30
2022-12-09T02:38:32.488Z,45.00
2022-12-09T02:41:05.922Z,45.50
2022-12-09T02:43:37.997Z,46.20
2022-12-09T02:46:06.788Z,45.20
2022-12-09T02:48:39.536Z,45.10
2022-12-09T02:51:10.752Z,47.17
2022-12-09T02:53:40.197Z,48.33
2022-12-09T02:56:09.036Z,41.83
2022-12-09T02:58:36.034Z,42.27
2022-12-09T03:01:03.612Z,41.57
2022-12-09T03:03:34.168Z,41.93
2022-12-09T03:06:08.290Z,41.27
2022-12-09T03:09:01.095Z,43.03
2022-12-09T03:11:29.083Z,47.70
2022-12-09T03:14:07.987Z,43.40
2022-12-09T03:16:56.140Z,52.30
2022-12-09T03:19:34.342Z,46.90
2022-12-09T03:22:07.688Z,44.50
2022-12-09T03:24:44.325Z,42.87
2022-12-09T03:27:17.584Z,42.13
2022-12-09T03:29:48.239Z,40.87
2022-12-09T03:32:26.426Z,40.93
2022-12-09T03:35:00.042Z,42.20
2022-12-09T03:37:27.718Z,39.60
2022-12-09T03:39:55.997Z,44.67
2022-12-09T03:42:34.037Z,44.10
2022-12-09T03:45:06.105Z,45.43
2022-12-09T03:47:34.103Z,44.60
2022-12-09T03:50:01.440Z,43.90
2022-12-09T03:53:05.139Z,41.37
2022-12-09T03:55:44.611Z,43.43
2022-12-09T03:58:13.908Z,45.90
2022-12-09T04:00:41.068Z,43.47
2022-12-09T04:03:08.862Z,45.13
2022-12-09T04:05:35.960Z,44.20
2022-12-09T04:08:03.156Z,42.60
2022-12-09T04:10:30.143Z,41.23
2022-12-09T04:12:57.783Z,43.27
2022-12-09T04:15:24.660Z,42.63
2022-12-09T04:17:51.623Z,42.40
2022-12-09T04:20:18.837Z,42.30
2022-12-09T04:22:46.287Z,43.47
2022-12-09T04:25:13.281Z,42.40
2022-12-09T04:27:40.311Z,42.97
2022-12-09T04:30:08.727Z,43.63
2022-12-09T04:32:37.304Z,40.83
2022-12-09T04:35:04.957Z,43.17
2022-12-09T04:37:32.725Z,44.50
2022-12-09T04:39:59.646Z,43.47
2022-12-09T04:42:29.140Z,43.63
2022-12-09T04:44:56.544Z,42.60
2022-12-09T04:47:23.830Z,43.60
2022-12-09T04:49:50.991Z,44.27
2022-12-09T04:52:18.696Z,46.07
2022-12-09T04:54:46.281Z,43.30
2022-12-09T04:57:13.246Z,43.40
2022-12-09T04:59:40.135Z,44.70
2022-12-09T05:02:07.257Z,42.97
2022-12-09T05:04:34.518Z,40.93
2022-12-09T05:07:01.800Z,43.40
2022-12-09T05:09:29.426Z,40.50
2022-12-09T05:11:59.931Z,40.83
2022-12-09T05:14:27.041Z,40.07
2022-12-09T05:16:54.592Z,41.37
2022-12-09T05:19:21.959Z,42.67
2022-12-09T05:21:49.184Z,42.63
2022-12-09T05:24:16.264Z,42.47
2022-12-09T05:26:43.608Z,41.77
2022-12-09T05:29:10.641Z,43.10
2022-12-09T05:31:38.602Z,42.80
2022-12-09T05:34:06.303Z,43.13
2022-12-09T05:36:33.673Z,43.83
2022-12-09T05:39:01.040Z,42.47
2022-12-09T05:41:28.112Z,40.47
2022-12-09T05:43:56.062Z,43.10
2022-12-09T05:46:23.480Z,40.70
2022-12-09T05:48:50.902Z,42.33
2022-12-09T05:51:29.413Z,42.93
2022-12-09T05:53:58.935Z,43.07
2022-12-09T05:56:26.705Z,42.37
2022-12-09T05:58:54.755Z,44.50
2022-12-09T06:01:22.774Z,42.63
2022-12-09T06:03:52.131Z,41.47
2022-12-09T06:06:21.709Z,40.33
2022-12-09T06:08:49.576Z,43.60
2022-12-09T06:11:19.959Z,40.87
2022-12-09T06:13:54.758Z,41.87
2022-12-09T06:16:23.615Z,41.97
2022-12-09T06:18:51.446Z,43.37
2022-12-09T06:21:19.974Z,43.27
2022-12-09T06:23:47.612Z,41.20
2022-12-09T06:26:29.857Z,43.67
2022-12-09T06:28:57.621Z,42.97
2022-12-09T06:31:25.867Z,42.83
2022-12-09T06:33:55.783Z,43.93
2022-12-09T06:36:25.258Z,43.13
2022-12-09T06:38:52.679Z,42.20
2022-12-09T06:41:19.947Z,42.97
2022-12-09T06:43:47.527Z,42.07
2022-12-09T06:46:21.238Z,41.30
2022-12-09T06:48:48.953Z,43.83
2022-12-09T06:51:17.775Z,42.33
2022-12-09T06:53:45.574Z,40.77
2022-12-09T06:56:13.801Z,37.77
2022-12-09T06:58:43.140Z,42.67
2022-12-09T07:01:13.796Z,41.00
2022-12-09T07:03:50.256Z,41.87
2022-12-09T07:06:39.264Z,42.73
2022-12-09T07:09:18.800Z,42.70
2022-12-09T07:11:47.384Z,42.30
2022-12-09T07:14:16.973Z,41.30
2022-12-09T07:16:44.544Z,43.40
2022-12-09T07:19:20.457Z,40.90
2022-12-09T07:21:49.581Z,38.83
2022-12-09T07:24:18.488Z,40.53
2022-12-09T07:26:45.813Z,40.90
2022-12-09T07:29:12.877Z,39.70
2022-12-09T07:31:40.599Z,41.53
2022-12-09T07:34:08.659Z,42.90
2022-12-09T07:36:36.691Z,44.23
2022-12-09T07:39:15.478Z,44.00
2022-12-09T07:41:42.775Z,45.23
2022-12-09T07:44:11.374Z,43.37
2022-12-09T07:46:39.733Z,45.90
2022-12-09T07:49:07.417Z,42.30
2022-12-09T07:51:34.835Z,44.87
2022-12-09T07:54:02.256Z,45.20
2022-12-09T07:56:30.245Z,42.70
2022-12-09T07:58:58.179Z,44.10
2022-12-09T08:01:28.512Z,44.00
2022-12-09T08:03:56.747Z,45.50
2022-12-09T08:06:27.019Z,42.13
2022-12-09T08:08:54.960Z,41.30
2022-12-09T08:11:25.675Z,41.57
2022-12-09T08:13:54.098Z,42.60
2022-12-09T08:16:22.753Z,38.97
2022-12-09T08:18:51.520Z,41.43
2022-12-09T08:21:22.141Z,37.57
2022-12-09T08:23:50.293Z,39.60
2022-12-09T08:26:19.865Z,38.73
2022-12-09T08:28:47.928Z,36.70
2022-12-09T08:31:20.980Z,35.80
2022-12-09T08:33:49.078Z,37.60
2022-12-09T08:36:19.205Z,38.90
2022-12-09T08:38:46.932Z,37.50
2022-12-09T08:41:19.450Z,36.73
2022-12-09T08:43:47.633Z,35.30
2022-12-09T08:46:15.448Z,36.63
2022-12-09T08:48:43.727Z,36.00
2022-12-09T08:51:12.354Z,34.83
2022-12-09T08:53:40.275Z,37.47
2022-12-09T08:56:09.697Z,34.87
2022-12-09T08:58:37.466Z,36.23
2022-12-09T09:01:05.707Z,36.43
2022-12-09T09:03:33.355Z,35.20
2022-12-09T09:06:10.878Z,35.30
2022-12-09T09:08:39.453Z,36.23
2022-12-09T09:11:18.757Z,34.03
2022-12-09T09:13:48.266Z,34.50
2022-12-09T09:16:19.376Z,34.63
2022-12-09T09:18:46.678Z,36.20
2022-12-09T09:21:16.116Z,36.83
2022-12-09T09:23:43.775Z,36.93
2022-12-09T09:26:19.375Z,35.43
2022-12-09T09:28:47.348Z,34.20
2022-12-09T09:31:18.502Z,35.77
2022-12-09T09:33:46.958Z,38.13
2022-12-09T09:36:17.642Z,44.23
2022-12-09T09:38:44.791Z,35.57
2022-12-09T09:41:28.657Z,38.40
2022-12-09T09:43:57.457Z,37.67
2022-12-09T09:46:46.147Z,36.90
2022-12-09T09:49:42.068Z,38.77
2022-12-09T09:52:16.422Z,41.90
2022-12-09T09:54:43.667Z,41.60
2022-12-09T09:57:32.680Z,52.43
2022-12-09T10:00:33.447Z,46.43
2022-12-09T10:03:15.249Z,50.60
2022-12-09T10:05:56.148Z,45.30
2022-12-09T10:08:56.249Z,32.07
2022-12-09T10:12:04.325Z,28.00
2022-12-09T10:14:55.201Z,27.90
2022-12-09T10:17:58.745Z,27.83
2022-12-09T10:20:30.896Z,28.17
2022-12-09T10:23:05.063Z,27.57
2022-12-09T10:25:38.326Z,29.33
2022-12-09T10:28:31.315Z,30.10
2022-12-09T10:30:59.269Z,29.53
2022-12-09T10:33:39.821Z,30.27
2022-12-09T10:36:18.875Z,30.90
2022-12-09T10:38:46.028Z,29.30
2022-12-09T10:41:54.642Z,30.53
2022-12-09T10:44:26.798Z,31.60
2022-12-09T10:47:28.359Z,32.60
2022-12-09T10:49:57.699Z,36.93
2022-12-09T10:52:29.690Z,39.43
2022-12-09T10:54:58.042Z,35.33
2022-12-09T10:57:29.778Z,34.63
2022-12-09T11:00:16.106Z,31.83
2022-12-09T11:02:53.998Z,34.30
2022-12-09T11:05:30.071Z,34.90
2022-12-09T11:07:59.601Z,34.50
2022-12-09T11:10:29.793Z,32.93
2022-12-09T11:13:06.319Z,31.60
2022-12-09T11:16:02.071Z,32.50
2022-12-09T11:18:38.062Z,33.70
2022-12-09T11:21:07.970Z,33.77
2022-12-09T11:23:36.022Z,37.27
2022-12-09T11:26:06.891Z,37.30
2022-12-09T11:28:39.376Z,38.50
2022-12-09T11:31:30.453Z,38.23
2022-12-09T11:34:04.469Z,38.97
2022-12-09T11:36:38.545Z,35.10
2022-12-09T11:39:28.856Z,34.60
2022-12-09T11:42:17.620Z,36.13
2022-12-09T11:45:00.785Z,34.20
2022-12-09T11:48:13.465Z,34.63
2022-12-09T11:50:33.444Z,34.40
2022-12-09T11:53:30.527Z,37.10
2022-12-09T11:56:28.657Z,35.33
2022-12-09T11:59:20.281Z,36.63
2022-12-09T12:02:49.824Z,39.30
2022-12-09T12:05:24.056Z,37.80
2022-12-09T12:08:02.190Z,36.03
2022-12-09T12:10:42.634Z,34.57
2022-12-09T12:13:26.488Z,36.03
2022-12-09T12:16:09.031Z,35.10
2022-12-09T12:18:47.783Z,32.30
2022-12-09T12:21:41.140Z,35.83
2022-12-09T12:24:35.831Z,36.43
2022-12-09T12:27:22.928Z,36.27
2022-12-09T12:30:29.015Z,37.40
2022-12-09T12:36:53.534Z,34.70
2022-12-09T12:40:23.479Z,34.83
2022-12-09T13:05:50.135Z,39.03
2022-12-09T13:08:20.088Z,40.20
2022-12-09T13:11:04.697Z,39.17
2022-12-09T13:13:44.134Z,35.30
2022-12-09T13:16:46.129Z,36.13
2022-12-09T13:19:22.168Z,34.93
2022-12-09T13:21:49.747Z,38.23
2022-12-09T13:24:59.812Z,37.20
2022-12-09T13:28:11.466Z,35.43
2022-12-09T13:30:51.158Z,40.17
2022-12-09T13:34:00.010Z,40.90
2022-12-09T13:36:53.025Z,44.57
2022-12-09T13:39:55.648Z,42.80
2022-12-09T13:42:59.018Z,44.57
2022-12-09T13:45:46.237Z,45.10
2022-12-09T13:48:41.645Z,43.17
2022-12-09T13:51:08.870Z,44.60
2022-12-09T13:53:46.594Z,42.87
2022-12-09T13:56:35.074Z,43.00
2022-12-09T13:59:40.235Z,40.37
2022-12-09T14:02:37.429Z,42.33
2022-12-09T14:05:12.984Z,40.67
2022-12-09T14:07:46.405Z,42.43
2022-12-09T14:10:45.451Z,42.27
2022-12-09T14:13:35.666Z,40.87
2022-12-09T14:16:49.095Z,42.57
2022-12-09T14:19:51.954Z,41.67
2022-12-09T14:22:39.579Z,42.70
2022-12-09T14:25:46.766Z,41.80
2022-12-09T14:28:52.771Z,40.80
2022-12-09T14:31:43.527Z,42.43
2022-12-09T14:34:32.932Z,43.40
2022-12-09T14:37:32.395Z,41.77
2022-12-09T14:40:25.393Z,42.30
2022-12-09T14:43:07.871Z,40.73
2022-12-09T14:46:02.833Z,41.70
2022-12-09T14:48:34.457Z,39.33
2022-12-09T14:51:21.804Z,40.00
2022-12-09T14:53:59.148Z,38.93
2022-12-09T14:56:27.477Z,41.63
2022-12-09T14:59:00.719Z,38.23
2022-12-09T15:01:27.727Z,42.43
2022-12-09T15:03:57.309Z,36.83
2022-12-09T15:06:27.107Z,40.20
2022-12-09T15:08:56.627Z,39.70
2022-12-09T15:11:33.735Z,38.10
2022-12-09T15:14:25.255Z,40.97
2022-12-09T15:16:52.743Z,40.23
2022-12-09T15:19:58.636Z,38.73
2022-12-09T15:22:23.496Z,39.77
2022-12-09T15:24:51.587Z,36.40
2022-12-09T15:27:21.454Z,40.63
2022-12-09T15:29:48.642Z,42.57
2022-12-09T15:32:30.744Z,38.67
2022-12-09T15:35:23.751Z,40.17
2022-12-09T15:37:53.100Z,38.43
2022-12-09T15:40:22.488Z,42.70
2022-12-09T15:42:52.986Z,42.80
2022-12-09T15:45:24.401Z,47.10
2022-12-09T15:48:18.041Z,41.60
2022-12-09T15:50:54.404Z,42.50
2022-12-09T15:53:58.682Z,40.27
2022-12-09T15:56:45.765Z,46.10
2022-12-09T15:59:19.185Z,43.67
2022-12-09T16:01:52.591Z,43.80
2022-12-09T16:04:22.987Z,42.00
2022-12-09T16:06:50.801Z,42.00
2022-12-09T16:09:21.303Z,38.33
2022-12-09T16:11:54.465Z,40.17
2022-12-09T16:14:23.717Z,40.93
2022-12-09T16:17:02.597Z,42.70
2022-12-09T16:19:38.888Z,44.33
2022-12-09T16:22:29.477Z,46.00
2022-12-09T16:25:29.379Z,41.07
2022-12-09T16:28:08.193Z,41.47
2022-12-09T16:30:47.139Z,42.20
2022-12-09T16:33:19.815Z,40.83
2022-12-09T16:36:02.930Z,42.77
2022-12-09T16:38:36.421Z,44.40
2022-12-09T16:41:08.226Z,45.77
2022-12-09T16:43:35.726Z,42.53
2022-12-09T16:46:43.224Z,42.13
2022-12-09T16:49:10.267Z,41.30
2022-12-09T16:51:38.711Z,40.67
2022-12-09T16:54:19.730Z,50.10
2022-12-09T16:56:47.453Z,40.17
2022-12-09T16:59:14.461Z,40.37
2022-12-09T17:01:42.729Z,42.03
2022-12-09T17:04:20.987Z,37.27
2022-12-09T17:06:48.010Z,38.63
2022-12-09T17:09:16.063Z,38.50
2022-12-09T17:11:48.565Z,35.70
2022-12-09T17:14:16.632Z,39.70
2022-12-09T17:16:43.635Z,35.27
2022-12-09T17:19:10.564Z,32.87
2022-12-09T17:21:37.474Z,31.60
2022-12-09T17:24:04.681Z,35.70
2022-12-09T17:26:33.348Z,36.93
2022-12-09T17:29:02.023Z,32.53
2022-12-09T17:31:34.595Z,30.27
2022-12-09T17:34:05.452Z,31.70
2022-12-09T17:36:34.037Z,30.67
2022-12-09T17:39:07.383Z,30.13
2022-12-09T17:41:34.424Z,28.70
2022-12-09T17:44:01.827Z,27.10
2022-12-09T17:46:28.939Z,28.07
2022-12-09T17:48:55.938Z,29.33
2022-12-09T17:51:24.046Z,36.10
2022-12-09T17:53:51.030Z,40.97
2022-12-09T17:56:21.118Z,36.50
2022-12-09T17:58:56.753Z,38.90
2022-12-09T18:01:24.893Z,41.27
2022-12-09T18:03:57.287Z,40.67
2022-12-09T18:06:27.932Z,40.70
2022-12-09T18:08:55.042Z,38.60
2022-12-09T18:11:24.133Z,37.60
2022-12-09T18:13:51.751Z,38.97
2022-12-09T18:16:19.356Z,33.33
2022-12-09T18:18:46.663Z,35.57
2022-12-09T18:21:16.259Z,35.40
2022-12-09T18:23:43.878Z,38.07
2022-12-09T18:26:15.848Z,37.20
2022-12-09T18:28:43.269Z,36.13
2022-12-09T18:31:13.896Z,37.43
2022-12-09T18:33:42.202Z,33.50
2022-12-09T18:36:13.760Z,35.07
2022-12-09T18:38:41.403Z,35.07
2022-12-09T18:41:21.825Z,38.60
2022-12-09T18:43:51.489Z,40.70
2022-12-09T18:46:25.182Z,39.27
2022-12-09T18:49:05.063Z,38.27
2022-12-09T18:51:35.368Z,40.53
2022-12-09T18:54:03.842Z,43.17
2022-12-09T18:56:31.520Z,40.27
2022-12-09T18:59:08.371Z,42.93
2022-12-09T19:01:39.829Z,44.30
2022-12-09T19:04:11.613Z,47.63
2022-12-09T19:06:40.501Z,49.47
2022-12-09T19:09:11.239Z,51.77
2022-12-09T19:11:39.407Z,48.53
2022-12-09T19:14:08.067Z,49.90
2022-12-09T19:16:35.888Z,54.80
2022-12-09T19:19:09.568Z,54.63
2022-12-09T19:21:38.132Z,51.30
2022-12-09T19:24:05.987Z,47.27
2022-12-09T19:26:35.256Z,48.30
2022-12-09T19:29:08.436Z,51.30
2022-12-09T19:31:41.632Z,49.37
2022-12-09T19:34:19.631Z,50.20
2022-12-09T19:36:48.255Z,48.80
2022-12-09T19:39:18.254Z,49.03
2022-12-09T19:41:46.749Z,46.53
2022-12-09T19:44:31.165Z,46.53
2022-12-09T19:47:03.580Z,48.40
2022-12-09T19:49:30.666Z,51.60
2022-12-09T19:52:00.218Z,50.07
2022-12-09T19:54:30.695Z,48.47
2022-12-09T19:56:58.890Z,50.87
2022-12-09T19:59:27.796Z,51.13
2022-12-09T20:01:55.092Z,51.20
2022-12-09T20:07:13.858Z,51.13
2022-12-09T20:09:41.336Z,54.57
2022-12-09T20:12:08.334Z,55.17
2022-12-09T20:14:35.362Z,57.47
2022-12-09T20:17:02.716Z,59.80
2022-12-09T20:19:31.759Z,56.00
2022-12-09T20:21:59.038Z,57.00
2022-12-09T20:24:27.003Z,57.47
2022-12-09T20:26:55.302Z,56.00
2022-12-09T20:29:22.373Z,55.87
2022-12-09T20:31:49.810Z,54.30
2022-12-09T20:34:20.442Z,56.90
2022-12-09T20:36:48.804Z,58.60
2022-12-09T20:39:21.486Z,59.97
2022-12-09T20:41:49.277Z,56.93
2022-12-09T20:44:17.888Z,58.27
2022-12-09T20:46:51.077Z,60.07
2022-12-09T20:49:21.670Z,57.27
2022-12-09T20:51:49.862Z,57.37
2022-12-09T20:54:16.845Z,60.50
2022-12-09T20:56:45.105Z,58.57
2022-12-09T20:59:14.113Z,59.17
2022-12-09T21:01:41.700Z,61.97
2022-12-09T21:04:09.796Z,71.20
2022-12-09T21:06:40.167Z,76.60
2022-12-09T21:09:14.954Z,68.63
2022-12-09T21:11:42.760Z,71.73
2022-12-09T21:14:12.735Z,67.03
2022-12-09T21:16:43.421Z,69.97
2022-12-09T21:19:16.828Z,65.67
2022-12-09T21:21:49.013Z,68.17
2022-12-09T21:24:18.127Z,69.30
2022-12-09T21:26:47.756Z,68.47
2022-12-09T21:29:15.553Z,66.90
2022-12-09T21:31:48.902Z,67.10
2022-12-09T21:34:16.816Z,64.80
2022-12-09T21:36:45.735Z,70.90
2022-12-09T21:39:17.761Z,66.10
2022-12-09T21:41:48.922Z,68.57
2022-12-09T21:44:19.128Z,65.90
2022-12-09T21:46:46.698Z,67.80
2022-12-09T21:49:14.881Z,65.10
2022-12-09T21:51:45.339Z,63.90
2022-12-09T21:54:14.324Z,62.40
2022-12-09T21:56:41.758Z,62.40
2022-12-09T21:59:10.314Z,60.60
2022-12-09T22:01:40.205Z,62.23
2022-12-09T22:04:12.283Z,61.20
2022-12-09T22:06:41.843Z,62.67
2022-12-09T22:09:09.258Z,62.50
2022-12-09T22:11:38.889Z,61.27
2022-12-09T22:14:07.889Z,63.67
2022-12-09T22:16:38.982Z,62.50
2022-12-09T22:19:11.913Z,63.17
2022-12-09T22:21:39.398Z,62.37
2022-12-09T22:24:08.534Z,58.00
2022-12-09T22:26:35.991Z,59.20
2022-12-09T22:29:06.236Z,62.27
2022-12-09T22:31:39.545Z,61.67
2022-12-09T22:34:12.220Z,59.80
2022-12-09T22:36:41.684Z,62.60
2022-12-09T22:39:18.369Z,59.70
2022-12-09T22:41:46.161Z,58.90
2022-12-09T22:44:15.335Z,59.13
2022-12-09T22:46:43.197Z,63.00
2022-12-09T22:49:12.370Z,58.13
2022-12-09T22:51:40.509Z,59.20
2022-12-09T22:54:09.272Z,60.30
2022-12-09T22:56:41.063Z,57.47
2022-12-09T22:59:09.047Z,56.10
2022-12-09T23:01:37.624Z,54.70
2022-12-09T23:04:07.395Z,54.87
2022-12-09T23:06:36.796Z,54.37
2022-12-09T23:09:05.389Z,57.87
2022-12-09T23:11:32.515Z,58.60
2022-12-09T23:14:01.033Z,58.50
2022-12-09T23:16:28.799Z,54.23
2022-12-09T23:18:57.781Z,56.17
2022-12-09T23:21:32.502Z,54.60
2022-12-09T23:24:02.435Z,52.90
2022-12-09T23:26:32.371Z,54.10
2022-12-09T23:29:01.979Z,51.30
2022-12-09T23:31:32.492Z,50.63
2022-12-09T23:34:01.200Z,49.97
2022-12-09T23:36:31.971Z,50.50
2022-12-09T23:39:00.149Z,51.47
2022-12-09T23:41:28.264Z,48.70
2022-12-09T23:43:56.026Z,51.00
2022-12-09T23:46:26.081Z,53.23
2022-12-09T23:48:54.317Z,46.70
2022-12-09T23:51:27.197Z,34.63
2022-12-09T23:53:59.827Z,47.80
2022-12-09T23:56:29.883Z,47.77
2022-12-09T23:59:02.973Z,48.13
